Darstellungsparameter: Aktuell verwendete Einstellungen:
Skalierung der Graphiken ... ?
xyx+y,   Skalierungsfaktor:      Skalierung: Modus: x, Faktor: 1
Darstellungszeitraum ... ?
Vom - - bis: - -   Zeitraum: 20.04.2005 - 22.04.2005
Min/Max/Avg-Anzeige ... ?
Zeige MMA aktuell
Zeige MMA Monat
Zeige MMA alles
Zeige --A aktuell
Zeige --A Monat
Zeige --A alles
Keine MMA-Anzeige
MMA:
Average (ber die Originaldaten)
MMA-Basis: 20.04.2005 - 22.04.2005
Quicknavigation für Darstellung... ?
Tage:      1T, 2T, 3T, 5T -1T -2T -3T -5T +1T +2T +3T +5T
Wochen: 1W, 2W, 3W -1W -2W -3W +1W +2W +3W
Monate: 1M, 3M, 6M -1M -3M -6M +1M +3M +6M
Jahre:    1J, 3J, 5J, 10J -1J -3J -5J -10J +1J +3J +5J +10J
Nutze für die Darstellung ... ?
Originaldaten oder Mittelwerte auf ...
Stundenbasis Tagesbasis Wochenbasis
Monatsbasis Jahresbasis      Datenbasis: Original-Daten
Darstellen als:
Statistik (Auto) Statistik J:M      Darstellung:
Zur Graphik,    zurück zur Übersicht aller Sensoren.
 
Tabellarische Datenbersicht: ?
 
Sensor: Nr:Datum:Temp:Abs-Feuchte:Windchill:Wind:
Aussen-T/F 1 20-04-2005 00:10:02 7.1 C 7.33 g/m*3 7.1 C 0 km/h
2 20-04-2005 00:22:03 7 C 7.28 g/m*3 7 C 0 km/h
3 20-04-2005 00:34:03 7 C 7.36 g/m*3 7 C 0 km/h
4 20-04-2005 00:46:02 7 C 7.36 g/m*3 7 C 0 km/h
5 20-04-2005 00:58:02 7.1 C 7.41 g/m*3 7.1 C 0 km/h
6 20-04-2005 01:10:02 7.1 C 7.41 g/m*3 7.1 C 0 km/h
7 20-04-2005 01:22:02 7.1 C 7.41 g/m*3 7.1 C 0 km/h
8 20-04-2005 01:34:01 7.2 C 7.46 g/m*3 7.2 C 0 km/h
9 20-04-2005 01:46:02 7.3 C 7.51 g/m*3 7.3 C 0 km/h
10 20-04-2005 01:58:02 7.3 C 7.51 g/m*3 7.3 C 0 km/h
11 20-04-2005 02:10:01 7.4 C 7.48 g/m*3 7.4 C 0 km/h
12 20-04-2005 02:22:02 7.5 C 7.44 g/m*3 7.5 C 0 km/h
13 20-04-2005 02:34:01 7.5 C 7.44 g/m*3 7.5 C 0 km/h
14 20-04-2005 02:47:03 7.5 C 7.36 g/m*3 7.5 C 0 km/h
15 20-04-2005 02:59:03 7.5 C 7.36 g/m*3 7.5 C 0 km/h
16 20-04-2005 03:11:03 7.5 C 7.36 g/m*3 7.5 C 0 km/h
17 20-04-2005 03:23:03 7.5 C 7.36 g/m*3 7.5 C 0 km/h
18 20-04-2005 03:35:03 7.7 C 7.38 g/m*3 7.7 C 0 km/h
19 20-04-2005 03:47:03 7.5 C 7.2 g/m*3 7.5 C 0 km/h
20 20-04-2005 03:59:03 7.5 C 7.2 g/m*3 7.5 C 0 km/h
21 20-04-2005 04:11:02 7.4 C 7.16 g/m*3 7.4 C 0 km/h
22 20-04-2005 04:23:02 7.4 C 7.16 g/m*3 7.4 C 0 km/h
23 20-04-2005 04:35:02 7.3 C 7.11 g/m*3 7.3 C 0 km/h
24 20-04-2005 04:47:03 7.3 C 7.19 g/m*3 7.3 C 0 km/h
25 20-04-2005 04:59:03 7.2 C 7.14 g/m*3 7.2 C 0 km/h
Sensor: Nr:Datum:Temp:Abs-Feuchte:Windchill:Wind:
Aussen-T/F 26 20-04-2005 05:11:02 7.1 C 7.1 g/m*3 7.1 C 0 km/h
27 20-04-2005 05:23:02 7.2 C 7.22 g/m*3 7.2 C 0 km/h
28 20-04-2005 05:35:02 7.1 C 7.18 g/m*3 7.1 C 0 km/h
29 20-04-2005 05:47:02 7.1 C 7.18 g/m*3 7.1 C 0 km/h
30 20-04-2005 05:59:02 7.1 C 7.18 g/m*3 7.1 C 0 km/h
31 20-04-2005 06:11:02 7.1 C 7.25 g/m*3 7.1 C 0 km/h
32 20-04-2005 06:23:01 7.1 C 7.25 g/m*3 7.1 C 0 km/h
33 20-04-2005 06:35:01 7.1 C 7.33 g/m*3 7.1 C 0 km/h
34 20-04-2005 06:47:01 7.1 C 7.33 g/m*3 7.1 C 0 km/h
35 20-04-2005 06:59:01 7 C 7.28 g/m*3 7 C 0 km/h
36 20-04-2005 07:11:01 7 C 7.28 g/m*3 7 C 0 km/h
37 20-04-2005 07:23:01 7 C 7.28 g/m*3 7 C 0 km/h
38 20-04-2005 07:35:02 7 C 7.28 g/m*3 7 C 0 km/h
39 20-04-2005 07:47:02 7 C 7.28 g/m*3 7 C 0 km/h
40 20-04-2005 07:59:02 7.1 C 7.41 g/m*3 7.1 C 0 km/h
41 20-04-2005 08:11:02 7.1 C 7.41 g/m*3 7.1 C 0 km/h
42 20-04-2005 08:23:01 7.2 C 7.46 g/m*3 7.2 C 0 km/h
43 20-04-2005 08:35:02 7.2 C 7.46 g/m*3 7.2 C 0 km/h
44 20-04-2005 08:47:02 7.3 C 7.51 g/m*3 7.3 C 0 km/h
45 20-04-2005 08:59:02 7.3 C 7.43 g/m*3 7.3 C 0 km/h
46 20-04-2005 09:11:02 7.3 C 7.43 g/m*3 7.3 C 0 km/h
47 20-04-2005 09:23:03 7.3 C 7.43 g/m*3 7.3 C 0 km/h
48 20-04-2005 09:35:02 7.4 C 7.4 g/m*3 7.4 C 0 km/h
49 20-04-2005 09:47:02 7.3 C 7.35 g/m*3 7.3 C 0 km/h
50 20-04-2005 09:59:02 7.4 C 7.4 g/m*3 7.4 C 0 km/h
Sensor: Nr:Datum:Temp:Abs-Feuchte:Windchill:Wind:
Aussen-T/F 51 20-04-2005 10:11:02 7.3 C 7.35 g/m*3 7.3 C 0 km/h
52 20-04-2005 10:23:02 7.4 C 7.4 g/m*3 7.4 C 0 km/h
53 20-04-2005 10:35:02 7.4 C 7.4 g/m*3 7.4 C 0 km/h
54 20-04-2005 10:47:02 7.4 C 7.4 g/m*3 7.4 C 0 km/h
55 20-04-2005 10:59:02 7.5 C 7.44 g/m*3 7.5 C 0 km/h
56 20-04-2005 11:11:01 7.7 C 7.54 g/m*3 7.7 C 0 km/h
57 20-04-2005 11:23:02 7.7 C 7.54 g/m*3 7.7 C 0 km/h
58 20-04-2005 11:35:02 7.7 C 7.54 g/m*3 7.7 C 0 km/h
59 20-04-2005 11:47:01 7.8 C 7.59 g/m*3 7.8 C 0 km/h
60 20-04-2005 11:59:01 7.8 C 7.59 g/m*3 7.8 C 0 km/h
61 20-04-2005 12:11:02 7.8 C 7.59 g/m*3 7.8 C 0 km/h
62 20-04-2005 12:23:02 8 C 7.69 g/m*3 8 C 0 km/h
63 20-04-2005 12:35:01 8 C 7.69 g/m*3 8 C 0 km/h
64 20-04-2005 12:47:01 8.4 C 7.89 g/m*3 8.4 C 0 km/h
65 20-04-2005 12:59:01 8.8 C 8.18 g/m*3 8.8 C 0 km/h
66 20-04-2005 13:11:02 9.3 C 8.36 g/m*3 9.3 C 0 km/h
67 20-04-2005 13:23:01 9.5 C 8.19 g/m*3 9.5 C 0 km/h
68 20-04-2005 13:35:01 9.8 C 7.89 g/m*3 9.8 C 0 km/h
69 20-04-2005 13:47:01 10.5 C 8.05 g/m*3 10.5 C 0 km/h
70 20-04-2005 13:59:01 10.8 C 8.2 g/m*3 10.8 C 0 km/h
71 20-04-2005 14:11:02 10.9 C 7.86 g/m*3 10.9 C 0 km/h
72 20-04-2005 14:23:02 11.5 C 7.85 g/m*3 11.5 C 0 km/h
73 20-04-2005 14:35:01 12.1 C 7.72 g/m*3 12.1 C 0 km/h
74 20-04-2005 14:47:01 12.4 C 7.43 g/m*3 12.4 C 0 km/h
75 20-04-2005 14:59:01 13.2 C 7.46 g/m*3 13.2 C 0 km/h
Sensor: Nr:Datum:Temp:Abs-Feuchte:Windchill:Wind:
Aussen-T/F 76 20-04-2005 15:11:01 13.9 C 7.31 g/m*3 13.9 C 0 km/h
77 20-04-2005 15:23:01 14.8 C 7.47 g/m*3 14.8 C 0 km/h
78 20-04-2005 15:35:02 14.7 C 6.8 g/m*3 14.7 C 0 km/h
79 20-04-2005 15:47:02 14.4 C 6.92 g/m*3 14.4 C 0 km/h
80 20-04-2005 15:59:02 13.1 C 6.62 g/m*3 13.1 C 0 km/h
81 20-04-2005 16:11:02 13 C 6.69 g/m*3 13 C 0 km/h
82 20-04-2005 16:23:02 13.5 C 6.32 g/m*3 13.5 C 0 km/h
83 20-04-2005 16:35:02 13.6 C 6.24 g/m*3 13.6 C 0 km/h
84 20-04-2005 16:47:01 13.7 C 6.87 g/m*3 13.7 C 0 km/h
85 20-04-2005 16:59:01 13.9 C 6.47 g/m*3 13.9 C 0 km/h
86 20-04-2005 17:11:01 14.1 C 6.07 g/m*3 14.1 C 0 km/h
87 20-04-2005 17:23:02 14.3 C 6.14 g/m*3 14.3 C 0 km/h
88 20-04-2005 17:35:02 14.5 C 5.97 g/m*3 14.5 C 0 km/h
89 20-04-2005 17:47:03 14.4 C 6.18 g/m*3 14.4 C 0 km/h
90 20-04-2005 17:59:03 14.1 C 5.83 g/m*3 14.1 C 0 km/h
91 20-04-2005 18:11:03 14 C 5.91 g/m*3 14 C 0 km/h
92 20-04-2005 18:23:02 13.7 C 5.57 g/m*3 13.7 C 0 km/h
93 20-04-2005 18:35:03 13.8 C 6.43 g/m*3 13.8 C 0 km/h
94 20-04-2005 18:47:02 13.5 C 6.43 g/m*3 13.5 C 0 km/h
95 20-04-2005 18:59:02 14.1 C 6.92 g/m*3 14.1 C 0 km/h
96 20-04-2005 19:11:02 13.8 C 6.43 g/m*3 13.8 C 0 km/h
97 20-04-2005 19:23:02 13.2 C 5.86 g/m*3 13.2 C 0 km/h
98 20-04-2005 19:35:02 12.6 C 6.64 g/m*3 12.6 C 0 km/h
99 20-04-2005 19:47:03 12.2 C 5.4 g/m*3 12.2 C 0 km/h
100 20-04-2005 19:59:03 11.6 C 5.72 g/m*3 11.6 C 0 km/h
Sensor: Nr:Datum:Temp:Abs-Feuchte:Windchill:Wind:
Aussen-T/F 101 20-04-2005 20:11:02 11.3 C 4.69 g/m*3 11.3 C 0 km/h
102 20-04-2005 20:23:03 11 C 4.2 g/m*3 11 C 0 km/h
103 20-04-2005 20:35:02 10.5 C 4.56 g/m*3 10.5 C 0 km/h
104 20-04-2005 20:47:02 9.7 C 5.25 g/m*3 9.7 C 0 km/h
105 20-04-2005 20:59:02 9 C 5.29 g/m*3 9 C 0 km/h
106 20-04-2005 21:11:03 8.4 C 5.51 g/m*3 8.4 C 0 km/h
107 20-04-2005 21:23:03 8.1 C 5.33 g/m*3 8.1 C 0 km/h
108 20-04-2005 21:35:02 7.9 C 5.34 g/m*3 7.9 C 0 km/h
109 20-04-2005 21:47:02 7.7 C 5.43 g/m*3 7.7 C 0 km/h
110 20-04-2005 21:59:03 7.4 C 5.41 g/m*3 7.4 C 0 km/h
111 20-04-2005 22:11:01 7.3 C 5.45 g/m*3 7.3 C 0 km/h
112 20-04-2005 22:23:02 6.9 C 5.39 g/m*3 6.9 C 0 km/h
113 20-04-2005 22:35:01 6.7 C 5.47 g/m*3 6.7 C 0 km/h
114 20-04-2005 22:47:01 6.5 C 5.47 g/m*3 6.5 C 0 km/h
115 20-04-2005 22:59:01 6.2 C 5.44 g/m*3 6.2 C 0 km/h
116 20-04-2005 23:11:02 6 C 5.52 g/m*3 6 C 0 km/h
117 20-04-2005 23:23:02 5.7 C 5.48 g/m*3 5.7 C 0 km/h
118 20-04-2005 23:35:01 5.6 C 5.44 g/m*3 5.6 C 0 km/h
119 20-04-2005 23:47:01 5.4 C 5.37 g/m*3 5.4 C 0 km/h
120 20-04-2005 23:59:01 5.6 C 5.59 g/m*3 5.6 C 0 km/h
121 21-04-2005 00:11:02 5.3 C 5.41 g/m*3 5.3 C 0 km/h
122 21-04-2005 00:23:03 5.1 C 5.34 g/m*3 5.1 C 0 km/h
123 21-04-2005 00:35:01 4.9 C 5.33 g/m*3 4.9 C 0 km/h
124 21-04-2005 00:47:02 4.7 C 5.2 g/m*3 4.7 C 0 km/h
125 21-04-2005 00:59:02 4.5 C 5.13 g/m*3 4.5 C 0 km/h
Sensor: Nr:Datum:Temp:Abs-Feuchte:Windchill:Wind:
Aussen-T/F 126 21-04-2005 01:11:02 4.4 C 5.09 g/m*3 4.4 C 0 km/h
127 21-04-2005 01:23:03 4.4 C 5.16 g/m*3 4.4 C 0 km/h
128 21-04-2005 01:35:01 4.2 C 5.03 g/m*3 4.2 C 0 km/h
129 21-04-2005 01:47:02 4 C 5.09 g/m*3 4 C 0 km/h
130 21-04-2005 01:59:02 3.9 C 5.18 g/m*3 3.9 C 0 km/h
131 21-04-2005 02:11:02 3.6 C 5.08 g/m*3 3.6 C 0 km/h
132 21-04-2005 02:23:02 3.6 C 5.14 g/m*3 3.6 C 0 km/h
133 21-04-2005 02:35:02 3.4 C 5.19 g/m*3 3.4 C 0 km/h
134 21-04-2005 02:48:03 3.2 C 5.18 g/m*3 3.2 C 0 km/h
135 21-04-2005 03:00:03 3.1 C 5.21 g/m*3 3.1 C 0 km/h
136 21-04-2005 03:12:03 2.8 C 5.22 g/m*3 2.8 C 0 km/h
137 21-04-2005 03:24:03 2.5 C 5.06 g/m*3 2.5 C 0 km/h
138 21-04-2005 03:36:03 2.3 C 4.99 g/m*3 2.3 C 0 km/h
139 21-04-2005 03:48:03 2.4 C 5.02 g/m*3 2.4 C 0 km/h
140 21-04-2005 04:00:03 2.2 C 4.96 g/m*3 2.2 C 0 km/h
141 21-04-2005 04:12:02 2 C 4.89 g/m*3 2 C 0 km/h
142 21-04-2005 04:24:02 2 C 4.95 g/m*3 2 C 0 km/h
143 21-04-2005 04:36:02 1.7 C 4.9 g/m*3 1.7 C 0 km/h
144 21-04-2005 04:48:02 1.7 C 4.9 g/m*3 1.7 C 0 km/h
145 21-04-2005 05:00:02 1.3 C 4.72 g/m*3 1.3 C 0 km/h
146 21-04-2005 05:12:02 1.2 C 4.68 g/m*3 1.2 C 0 km/h
147 21-04-2005 05:24:02 1.2 C 4.68 g/m*3 1.2 C 0 km/h
148 21-04-2005 05:36:02 1 C 4.57 g/m*3 1 C 0 km/h
149 21-04-2005 05:48:01 0.9 C 4.59 g/m*3 0.9 C 0 km/h
150 21-04-2005 06:00:01 0.8 C 4.56 g/m*3 0.8 C 0 km/h
Sensor: Nr:Datum:Temp:Abs-Feuchte:Windchill:Wind:
Aussen-T/F 151 21-04-2005 06:12:01 0.6 C 4.49 g/m*3 0.6 C 0 km/h
152 21-04-2005 06:24:02 0.3 C 4.35 g/m*3 0.3 C 0 km/h
153 21-04-2005 06:36:01 0.4 C 4.43 g/m*3 0.4 C 0 km/h
154 21-04-2005 06:48:02 0.4 C 4.48 g/m*3 0.4 C 0 km/h
155 21-04-2005 07:00:02 0.4 C 4.48 g/m*3 0.4 C 0 km/h
156 21-04-2005 07:12:03 0.4 C 4.48 g/m*3 0.4 C 0 km/h
157 21-04-2005 07:24:02 0.4 C 4.48 g/m*3 0.4 C 0 km/h
158 21-04-2005 07:36:07 0.4 C 4.48 g/m*3 0.4 C 0 km/h
159 21-04-2005 07:48:04 0.6 C 4.54 g/m*3 0.6 C 0 km/h
160 21-04-2005 08:00:04 0.8 C 4.66 g/m*3 0.8 C 0 km/h
161 21-04-2005 08:12:05 1.1 C 4.76 g/m*3 1.1 C 0 km/h
162 21-04-2005 08:24:03 1.3 C 4.82 g/m*3 1.3 C 0 km/h
163 21-04-2005 08:36:04 1.5 C 4.89 g/m*3 1.5 C 0 km/h
164 21-04-2005 08:48:04 1.8 C 4.99 g/m*3 1.8 C 0 km/h
165 21-04-2005 09:00:04 2.3 C 5.16 g/m*3 2.3 C 0 km/h
166 21-04-2005 09:12:04 2.7 C 5.3 g/m*3 2.7 C 0 km/h
167 21-04-2005 09:24:03 3.5 C 5.35 g/m*3 3.5 C 0 km/h
168 21-04-2005 09:36:04 4.3 C 5.12 g/m*3 4.3 C 0 km/h
169 21-04-2005 09:48:03 4.7 C 5 g/m*3 4.7 C 0 km/h
170 21-04-2005 10:00:03 5.3 C 4.71 g/m*3 5.3 C 0 km/h
171 21-04-2005 10:12:04 6 C 4.35 g/m*3 6 C 0 km/h
172 21-04-2005 10:24:04 6.6 C 4.38 g/m*3 6.6 C 0 km/h
173 21-04-2005 10:36:03 7.3 C 4.11 g/m*3 7.3 C 0 km/h
174 21-04-2005 10:48:02 7.8 C 4 g/m*3 7.8 C 0 km/h
175 21-04-2005 11:00:02 8.4 C 4.07 g/m*3 8.4 C 0 km/h
Sensor: Nr:Datum:Temp:Abs-Feuchte:Windchill:Wind:
Aussen-T/F 176 21-04-2005 11:12:02 9 C 4.14 g/m*3 9 C 0 km/h
177 21-04-2005 11:24:02 9.4 C 4.16 g/m*3 9.4 C 0 km/h
178 21-04-2005 11:36:02 9.9 C 3.92 g/m*3 9.9 C 0 km/h
179 21-04-2005 11:48:02 10.3 C 3.83 g/m*3 10.3 C 0 km/h
180 21-04-2005 12:00:02 9.9 C 3.36 g/m*3 9.9 C 0 km/h
181 21-04-2005 12:12:04 10.3 C 3.45 g/m*3 10.3 C 0 km/h
182 21-04-2005 12:24:04 10.5 C 3.2 g/m*3 10.5 C 0 km/h
183 21-04-2005 12:36:03 11.1 C 3.12 g/m*3 11.1 C 0 km/h
184 21-04-2005 12:48:03 11.5 C 3.31 g/m*3 11.5 C 0 km/h
185 21-04-2005 13:00:03 11.6 C 2.6 g/m*3 11.6 C 0 km/h
186 21-04-2005 13:12:02 12.6 C 3.1 g/m*3 12.6 C 0 km/h
187 21-04-2005 13:24:02 13 C 2.84 g/m*3 13 C 0 km/h
188 21-04-2005 13:36:01 13.7 C 2.96 g/m*3 13.7 C 0 km/h
189 21-04-2005 13:48:02 14.1 C 2.67 g/m*3 14.1 C 0 km/h
190 21-04-2005 14:00:03 14.1 C 2.43 g/m*3 14.1 C 0 km/h
191 21-04-2005 14:12:02 14.2 C 2.44 g/m*3 14.2 C 0 km/h
192 21-04-2005 14:24:02 14.3 C 2.46 g/m*3 14.3 C 0 km/h
193 21-04-2005 14:36:01 15.3 C 2.74 g/m*3 15.3 C 0 km/h
194 21-04-2005 14:48:01 16.1 C 2.74 g/m*3 16.1 C 0 km/h
195 21-04-2005 15:00:01 15.8 C 2.69 g/m*3 15.8 C 0 km/h
196 21-04-2005 15:12:02 15.8 C 2.69 g/m*3 15.8 C 0 km/h
197 21-04-2005 15:24:02 16 C 2.72 g/m*3 16 C 0 km/h
198 21-04-2005 15:36:01 17.4 C 2.96 g/m*3 17.4 C 0 km/h
199 21-04-2005 15:48:01 17.8 C 3.04 g/m*3 17.8 C 0 km/h
200 21-04-2005 16:00:01 17.7 C 3.02 g/m*3 17.7 C 0 km/h
Sensor: Nr:Datum:Temp:Abs-Feuchte:Windchill:Wind:
Aussen-T/F 201 21-04-2005 16:12:02 18.5 C 3.16 g/m*3 18.5 C 0 km/h
202 21-04-2005 16:24:02 18.7 C 3.2 g/m*3 18.7 C 0 km/h
203 21-04-2005 16:36:01 18.3 C 3.13 g/m*3 18.3 C 0 km/h
204 21-04-2005 16:48:01 17.9 C 3.05 g/m*3 17.9 C 0 km/h
205 21-04-2005 17:00:01 18.9 C 3.24 g/m*3 18.9 C 0 km/h
206 21-04-2005 17:12:01 17.9 C 3.05 g/m*3 17.9 C 0 km/h
207 21-04-2005 17:24:02 17.2 C 2.93 g/m*3 17.2 C 0 km/h
208 21-04-2005 17:36:01 17.3 C 2.95 g/m*3 17.3 C 0 km/h
209 21-04-2005 17:48:01 18.9 C 3.24 g/m*3 18.9 C 0 km/h
210 21-04-2005 18:00:01 17.7 C 3.02 g/m*3 17.7 C 0 km/h
211 21-04-2005 18:12:04 17.7 C 3.02 g/m*3 17.7 C 0 km/h
212 21-04-2005 18:24:03 18.1 C 3.09 g/m*3 18.1 C 0 km/h
213 21-04-2005 18:36:07 18.6 C 3.18 g/m*3 18.6 C 0 km/h
214 21-04-2005 18:48:06 18.2 C 3.11 g/m*3 18.2 C 0 km/h
215 21-04-2005 19:00:06 17.7 C 3.02 g/m*3 17.7 C 0 km/h
216 21-04-2005 19:12:09 17.5 C 2.98 g/m*3 17.5 C 0 km/h
217 21-04-2005 19:24:05 16.8 C 2.86 g/m*3 16.8 C 0 km/h
218 21-04-2005 19:36:04 16.1 C 2.74 g/m*3 16.1 C 0 km/h
219 21-04-2005 19:48:03 15.6 C 2.79 g/m*3 15.6 C 0 km/h
220 21-04-2005 20:00:03 15.1 C 2.71 g/m*3 15.1 C 0 km/h
221 21-04-2005 20:12:30 14.2 C 3.05 g/m*3 14.2 C 0 km/h
222 21-04-2005 20:24:03 13.4 C 3.25 g/m*3 13.4 C 0 km/h
223 21-04-2005 20:36:02 12.6 C 3.54 g/m*3 12.6 C 0 km/h
224 21-04-2005 20:48:02 12.2 C 4.21 g/m*3 12.2 C 0 km/h
225 21-04-2005 21:00:02 11.4 C 4.41 g/m*3 11.4 C 0 km/h
Sensor: Nr:Datum:Temp:Abs-Feuchte:Windchill:Wind:
Aussen-T/F 226 21-04-2005 21:12:02 10.9 C 4.18 g/m*3 10.9 C 0 km/h
227 21-04-2005 21:24:01 10.6 C 4.39 g/m*3 10.6 C 0 km/h
228 21-04-2005 21:36:02 10.1 C 3.97 g/m*3 10.1 C 0 km/h
229 21-04-2005 21:48:01 9.7 C 4.15 g/m*3 9.7 C 0 km/h
230 21-04-2005 22:00:01 9.5 C 4.19 g/m*3 9.5 C 0 km/h
231 21-04-2005 22:12:01 9.2 C 4.11 g/m*3 9.2 C 0 km/h
232 21-04-2005 22:24:02 9 C 4.58 g/m*3 9 C 0 km/h
233 21-04-2005 22:36:01 8.6 C 4.21 g/m*3 8.6 C 0 km/h
234 21-04-2005 22:48:02 8.6 C 4.47 g/m*3 8.6 C 0 km/h
235 21-04-2005 23:00:02 8.4 C 4.5 g/m*3 8.4 C 0 km/h
236 21-04-2005 23:12:02 8.1 C 4.33 g/m*3 8.1 C 0 km/h
237 21-04-2005 23:24:02 7.6 C 4.59 g/m*3 7.6 C 0 km/h
238 21-04-2005 23:36:01 7.6 C 4.67 g/m*3 7.6 C 0 km/h
239 21-04-2005 23:48:02 7.3 C 4.5 g/m*3 7.3 C 0 km/h
240 22-04-2005 00:00:02 7.1 C 4.6 g/m*3 7.1 C 0 km/h
241 22-04-2005 00:12:02 6.6 C 4.68 g/m*3 6.6 C 0 km/h
242 22-04-2005 00:24:03 6.3 C 4.66 g/m*3 6.3 C 0 km/h
243 22-04-2005 00:36:02 6.1 C 4.6 g/m*3 6.1 C 0 km/h
244 22-04-2005 00:48:02 5.8 C 4.66 g/m*3 5.8 C 0 km/h
245 22-04-2005 01:00:02 5.7 C 4.63 g/m*3 5.7 C 0 km/h
246 22-04-2005 01:12:01 5.4 C 4.47 g/m*3 5.4 C 0 km/h
247 22-04-2005 01:24:02 5.3 C 4.51 g/m*3 5.3 C 0 km/h
248 22-04-2005 01:36:01 5.1 C 4.38 g/m*3 5.1 C 0 km/h
249 22-04-2005 01:48:02 4.7 C 4.4 g/m*3 4.7 C 0 km/h
250 22-04-2005 02:00:02 4.5 C 4.54 g/m*3 4.5 C 0 km/h
Sensor: Nr:Datum:Temp:Abs-Feuchte:Windchill:Wind:
Aussen-T/F 251 22-04-2005 02:12:01 4.3 C 4.54 g/m*3 4.3 C 0 km/h
252 22-04-2005 02:24:02 4.2 C 4.57 g/m*3 4.2 C 0 km/h
253 22-04-2005 02:36:02 4 C 4.58 g/m*3 4 C 0 km/h
254 22-04-2005 02:49:04 3.8 C 4.58 g/m*3 3.8 C 0 km/h
255 22-04-2005 03:01:04 3.5 C 4.43 g/m*3 3.5 C 0 km/h
256 22-04-2005 03:13:03 3.4 C 4.46 g/m*3 3.4 C 0 km/h
257 22-04-2005 03:25:03 3.1 C 4.37 g/m*3 3.1 C 0 km/h
258 22-04-2005 03:37:01 3.1 C 4.43 g/m*3 3.1 C 0 km/h
259 22-04-2005 03:49:01 2.8 C 4.4 g/m*3 2.8 C 0 km/h
260 22-04-2005 04:01:02 2.7 C 4.43 g/m*3 2.7 C 0 km/h
261 22-04-2005 04:13:03 2.5 C 4.37 g/m*3 2.5 C 0 km/h
262 22-04-2005 04:25:02 2.4 C 4.28 g/m*3 2.4 C 0 km/h
263 22-04-2005 04:37:02 2.3 C 4.31 g/m*3 2.3 C 0 km/h
264 22-04-2005 04:49:02 2.1 C 4.36 g/m*3 2.1 C 0 km/h
265 22-04-2005 05:01:02 1.9 C 4.36 g/m*3 1.9 C 0 km/h
266 22-04-2005 05:13:03 1.8 C 4.33 g/m*3 1.8 C 0 km/h
267 22-04-2005 05:25:02 1.6 C 4.27 g/m*3 1.6 C 0 km/h
268 22-04-2005 05:37:01 1.5 C 4.24 g/m*3 1.5 C 0 km/h
269 22-04-2005 05:49:01 1.3 C 4.19 g/m*3 1.3 C 0 km/h
270 22-04-2005 06:01:01 1.3 C 4.29 g/m*3 1.3 C 0 km/h
271 22-04-2005 06:13:01 1.1 C 4.23 g/m*3 1.1 C 0 km/h
272 22-04-2005 06:25:02 1.1 C 4.23 g/m*3 1.1 C 0 km/h
273 22-04-2005 06:37:01 1 C 4.2 g/m*3 1 C 0 km/h
274 22-04-2005 06:49:02 0.9 C 4.28 g/m*3 0.9 C 0 km/h
275 22-04-2005 07:01:52 0.8 C 4.2 g/m*3 0.8 C 0 km/h
Sensor: Nr:Datum:Temp:Abs-Feuchte:Windchill:Wind:
Aussen-T/F 276 22-04-2005 07:13:02 0.9 C 4.23 g/m*3 0.9 C 0 km/h
277 22-04-2005 07:25:02 0.9 C 4.28 g/m*3 0.9 C 0 km/h
278 22-04-2005 07:37:02 0.9 C 4.28 g/m*3 0.9 C 0 km/h
279 22-04-2005 07:49:02 1.2 C 4.31 g/m*3 1.2 C 0 km/h
280 22-04-2005 08:01:02 1.4 C 4.43 g/m*3 1.4 C 0 km/h
281 22-04-2005 08:13:02 1.5 C 4.46 g/m*3 1.5 C 0 km/h
282 22-04-2005 08:25:02 1.8 C 4.55 g/m*3 1.8 C 0 km/h
283 22-04-2005 08:37:01 2.2 C 4.51 g/m*3 2.2 C 0 km/h
284 22-04-2005 08:49:01 2.4 C 4.45 g/m*3 2.4 C 0 km/h
285 22-04-2005 09:01:02 2.8 C 4.46 g/m*3 2.8 C 0 km/h
286 22-04-2005 09:13:02 3.2 C 4.52 g/m*3 3.2 C 0 km/h
287 22-04-2005 09:25:01 4 C 4.58 g/m*3 4 C 0 km/h
288 22-04-2005 09:37:02 4.7 C 4.66 g/m*3 4.7 C 0 km/h
289 22-04-2005 09:49:02 5.2 C 4.68 g/m*3 5.2 C 0 km/h
290 22-04-2005 10:01:02 5.7 C 4.84 g/m*3 5.7 C 0 km/h
291 22-04-2005 10:13:02 6.4 C 4.92 g/m*3 6.4 C 0 km/h
292 22-04-2005 10:25:02 7.1 C 4.91 g/m*3 7.1 C 0 km/h
293 22-04-2005 10:37:02 7.9 C 5.01 g/m*3 7.9 C 0 km/h
294 22-04-2005 10:49:02 8.6 C 4.81 g/m*3 8.6 C 0 km/h
295 22-04-2005 11:01:02 9.5 C 4.64 g/m*3 9.5 C 0 km/h
296 22-04-2005 11:13:02 10.3 C 4.88 g/m*3 10.3 C 0 km/h
297 22-04-2005 11:25:02 10.9 C 4.58 g/m*3 10.9 C 0 km/h
298 22-04-2005 11:37:02 11.2 C 4.05 g/m*3 11.2 C 0 km/h
299 22-04-2005 11:49:02 11.7 C 3.35 g/m*3 11.7 C 0 km/h
300 22-04-2005 12:01:03 12.2 C 3.02 g/m*3 12.2 C 0 km/h
Sensor: Nr:Datum:Temp:Abs-Feuchte:Windchill:Wind:
Aussen-T/F 301 22-04-2005 12:13:03 12.8 C 3.02 g/m*3 12.8 C 0 km/h
302 22-04-2005 12:25:02 13.4 C 3.25 g/m*3 13.4 C 0 km/h
303 22-04-2005 12:37:02 13.3 C 2.66 g/m*3 13.3 C 0 km/h
304 22-04-2005 12:49:02 13.2 C 2.64 g/m*3 13.2 C 0 km/h
305 22-04-2005 13:01:02 13.8 C 3.1 g/m*3 13.8 C 0 km/h
306 22-04-2005 13:13:02 14 C 2.77 g/m*3 14 C 0 km/h
307 22-04-2005 13:25:02 14.6 C 2.63 g/m*3 14.6 C 0 km/h
308 22-04-2005 13:37:02 15.3 C 2.61 g/m*3 15.3 C 0 km/h
309 22-04-2005 13:49:02 15.3 C 2.61 g/m*3 15.3 C 0 km/h
310 22-04-2005 14:01:02 15.4 C 2.63 g/m*3 15.4 C 0 km/h
311 22-04-2005 14:13:02 16.1 C 2.74 g/m*3 16.1 C 0 km/h
312 22-04-2005 14:25:02 16.3 C 2.77 g/m*3 16.3 C 0 km/h
313 22-04-2005 14:37:02 16.9 C 2.88 g/m*3 16.9 C 0 km/h
314 22-04-2005 14:49:02 17.6 C 3 g/m*3 17.6 C 0 km/h
315 22-04-2005 15:01:03 18.2 C 3.11 g/m*3 18.2 C 0 km/h
316 22-04-2005 15:13:03 17.8 C 3.04 g/m*3 17.8 C 0 km/h
317 22-04-2005 15:25:02 18.8 C 3.22 g/m*3 18.8 C 0 km/h
318 22-04-2005 15:37:02 18.7 C 3.2 g/m*3 18.7 C 0 km/h
319 22-04-2005 15:49:03 19.7 C 3.4 g/m*3 19.7 C 0 km/h
320 22-04-2005 16:01:02 20.7 C 3.6 g/m*3 20.7 C 0 km/h
321 22-04-2005 16:13:02 19.5 C 3.36 g/m*3 19.5 C 0 km/h
322 22-04-2005 16:25:02 20 C 3.46 g/m*3 20 C 0 km/h
323 22-04-2005 16:37:03 19.8 C 3.42 g/m*3 19.8 C 0 km/h
324 22-04-2005 16:49:02 19.8 C 3.42 g/m*3 19.8 C 0 km/h
325 22-04-2005 17:01:03 19.8 C 3.42 g/m*3 19.8 C 0 km/h
Sensor: Nr:Datum:Temp:Abs-Feuchte:Windchill:Wind:
Aussen-T/F 326 22-04-2005 17:13:03 19.8 C 3.42 g/m*3 19.8 C 0 km/h
327 22-04-2005 17:25:02 20.3 C 3.52 g/m*3 20.3 C 0 km/h
328 22-04-2005 17:37:02 20.7 C 3.6 g/m*3 20.7 C 0 km/h
329 22-04-2005 17:49:02 22 C 3.88 g/m*3 22 C 0 km/h
330 22-04-2005 18:01:03 21.5 C 3.77 g/m*3 21.5 C 0 km/h
331 22-04-2005 18:13:03 21.2 C 3.71 g/m*3 21.2 C 0 km/h
332 22-04-2005 18:25:02 20.5 C 3.56 g/m*3 20.5 C 0 km/h
333 22-04-2005 18:37:03 20.3 C 3.52 g/m*3 20.3 C 0 km/h
334 22-04-2005 18:49:02 20.2 C 3.5 g/m*3 20.2 C 0 km/h
335 22-04-2005 19:01:03 19.5 C 3.36 g/m*3 19.5 C 0 km/h
336 22-04-2005 19:13:03 19.5 C 3.36 g/m*3 19.5 C 0 km/h
337 22-04-2005 19:25:02 19.3 C 3.32 g/m*3 19.3 C 0 km/h
338 22-04-2005 19:37:02 19.3 C 3.32 g/m*3 19.3 C 0 km/h
339 22-04-2005 19:49:02 19.4 C 3.67 g/m*3 19.4 C 0 km/h
340 22-04-2005 20:01:02 18.6 C 3.34 g/m*3 18.6 C 0 km/h
341 22-04-2005 20:13:02 17.7 C 4.22 g/m*3 17.7 C 0 km/h
342 22-04-2005 20:25:03 16.2 C 4.14 g/m*3 16.2 C 0 km/h
343 22-04-2005 20:37:02 14.8 C 4.18 g/m*3 14.8 C 0 km/h
344 22-04-2005 20:49:02 14.1 C 3.88 g/m*3 14.1 C 0 km/h
345 22-04-2005 21:01:02 13.7 C 4.03 g/m*3 13.7 C 0 km/h
346 22-04-2005 21:13:02 13.4 C 4.07 g/m*3 13.4 C 0 km/h
347 22-04-2005 21:25:02 12.8 C 4.48 g/m*3 12.8 C 0 km/h
348 22-04-2005 21:37:03 12.4 C 4.59 g/m*3 12.4 C 0 km/h
349 22-04-2005 21:49:02 12.1 C 4.5 g/m*3 12.1 C 0 km/h
350 22-04-2005 22:01:03 11.5 C 4.54 g/m*3 11.5 C 0 km/h
Sensor: Nr:Datum:Temp:Abs-Feuchte:Windchill:Wind:
Aussen-T/F 351 22-04-2005 22:13:03 11.2 C 4.46 g/m*3 11.2 C 0 km/h
352 22-04-2005 22:25:02 10.9 C 4.67 g/m*3 10.9 C 0 km/h
353 22-04-2005 22:37:04 10.7 C 4.71 g/m*3 10.7 C 0 km/h
354 22-04-2005 22:49:02 10.5 C 4.66 g/m*3 10.5 C 0 km/h
355 22-04-2005 23:01:02 10.1 C 4.82 g/m*3 10.1 C 0 km/h
356 22-04-2005 23:13:02 9.9 C 5.04 g/m*3 9.9 C 0 km/h
357 22-04-2005 23:25:03 9.5 C 5.01 g/m*3 9.5 C 0 km/h
358 22-04-2005 23:37:04 9.3 C 4.94 g/m*3 9.3 C 0 km/h
359 22-04-2005 23:49:02 9 C 4.94 g/m*3 9 C 0 km/h

Legende:
   Min
   Max


Maximal/Minimal-Werte vom 20.04.2005 - 22.04.2005

Sensor Min Max Avg
Temp
(Aussen-T/F)
0.3 °C
21-04-2005  06:24:02
22 °C
22-04-2005  17:49:02
9.26 °C
Abs-Feuchte
(Aussen-T/F)
2.43 g/m*3
21-04-2005  14:00:03
8.36 g/m*3
20-04-2005  13:11:02
4.98 g/m*3
Windchill
(Aussen-T/F)
0.3 C
21-04-2005  06:24:02
22 C
22-04-2005  17:49:02
9.23 C

Die Daten stammen von einer Davis Vantage Pro 2 Wetter-Station und werden unter Linux mit der Software wview2wettercgi und aufbereitet. Alle Angaben erfolgen ohne Gewähr für ihre Vollständigkeit oder Richtigkeit.
Kontakt: Rainer Krienke krienke@uni-koblenz.de . Meine Webseiten an der Uni Koblenz oder privat.
Version: $Revision: 0.78 $